Mesa Verde National Park, CO

1:07 AM MDT on October 24, 2014 (GMT -0600)
East Canyon | Change Station
CLOSE
Current Station
Personal Weather Station
Location: Mancos, CO
Elevation: 7550 ft
Nearby Weather Stations

Elev 7550 ft 37.30 °N, 108.23 °W | Updated 26 minutes ago

Clear
Clear
46.5 °F
Feels Like 46 °F
N
2.0
Wind Variable Wind from NE
Gusts 7.0 mph

Today
High -- | Low -- °F
--% Chance of Precip.
Yesterday
High -- | Low -- °F
Precip. -- in
7:30 AM 6:24 PM
New Moon, 0% visible
Pressure 30.20 in
Visibility 10.0 miles
Clouds Clear
Windchill 46 °F
Dew Point 25 °F
Humidity 43%
Rainfall 0.00 in
Snow Depth Not available.
UV 0 out of 12
Pollen 2.40 out of 12
Air Quality Not available.
Flu Activity Sporadic
METAR KCEZ 240653Z AUTO 11004KT 10SM CLR 02/M01 A3032 RMK AO2 SLP227 T00221011 402170000

More Conditions Fewer Conditions

Pressure 30.20 in
Visibility 10.0 miles
Clouds Clear
Windchill 46 °F
Dew Point 25 °F
Humidity 43%
Rainfall 0.00 in
Snow Depth Not available.
UV 0 out of 12
Pollen 2.40 out of 12
Air Quality Not available.
Flu Activity Sporadic
METAR KCEZ 240653Z AUTO 11004KT 10SM CLR 02/M01 A3032 RMK AO2 SLP227 T00221011 402170000

More Conditions Fewer Conditions

10-Day Weather Forecast

Almanac

Astronomy

Oct. 24, 2014 Rise Set
Actual Time 7:30 AM MDT 6:24 PM MDT
Civil Twilight 7:03 AM MDT 6:51 PM MDT
Nautical Twilight 6:33 AM MDT 7:21 PM MDT
Astronomical Twilight 6:02 AM MDT 7:52 PM MDT
Moon 8:11 AM MDT 7:08 PM MDT
Length of Visible Light 11h 47m
Length of Day
10h 54m
Tomorrow will be 2m 12s shorter.
New Moon, 0% of the Moon is Illuminated
Today
New Moon
Oct 30
First Quarter
Nov 6
Full
Nov 14
Last Quarter
Nov 22
New

Today's Extremes

State Highs State Lows

Community

WunderPhotos

Upload Photos

1,764,510 photos uploaded!

WunderBlogs® & News

Nearby

Snow Depth

Station Depth Elevation
Sharkstooth 0 in 10720 ft
Columbus Basin 0 in 10785 ft
El Diente Peak 1 in 10200 ft
Cascade 0 in 8880 ft
Cascade #2 0 in 8920 ft

Earthquake Activity

City Distance Mag. Time & Date
No recent earthquake activity has been reported nearby.
Minimum magnitude displayed is 2.5.

Coastal Water Temperatures

Place Temperature
No Stations Reporting

Nearby Weather Stations